Utica, Minnesota
Current Conditions -  °F | °C
As of 4:34 AM on Saturday 22 Nov 2014 (Local Time) from KONA Reporting Station
Overcast Overcast  
Wind Chill: 30°   Ceiling: 1100
Heat Index: 36°   Visibility: 7mi
Dew Point: 32°   Wind: 7mph
Humidity: 87%   Direction: 220°SW
Pressure: 29.89"   Gusts: NA
Location:  43.98°N, 91.95°W
Report Text: KONA 221034Z AUTO 22006KT 7SM OVC011 02/00 A2989 RMK AO2
Loading
Personal Weather Stations






























Interactive Weather Map New forecast layout! Learn more

10-Day Weather Forecast

Advertisements
Track Severe Weather on mobile